Time;durP1;ratioP1;P1;durP2;ratioP2;P2;SDS_P1;SDS_P2;PMS_P1;PMS_P2;Temp;Humidity;BMP_temperature;BMP_pressure;BME280_temperature;BME280_humidity;BME280_pressure;Samples;Min_cycle;Max_cycle;Signal;HPM_P1;HPM_P2
2022/06/07 00:02:16;;;;;;;10.83;4.63;;;23.50;74.30;;;;;;5085863;28;20216;-76
2022/06/07 00:04:43;;;;;;;13.30;4.17;;;23.40;74.40;;;;;;5059513;28;20205;-76
2022/06/07 00:07:11;;;;;;;15.53;5.13;;;23.40;74.60;;;;;;5077413;28;20216;-76
2022/06/07 00:09:38;;;;;;;8.73;3.90;;;23.40;75.30;;;;;;5076289;28;20197;-76
2022/06/07 00:12:05;;;;;;;7.27;4.20;;;23.40;74.70;;;;;;5055951;28;20216;-76
2022/06/07 00:14:34;;;;;;;6.17;3.90;;;23.30;74.90;;;;;;5073973;28;20320;-77
2022/06/07 00:17:05;;;;;;;7.87;4.07;;;23.30;75.20;;;;;;5084448;28;20193;-76
2022/06/07 00:19:33;;;;;;;7.63;4.23;;;23.20;75.30;;;;;;5063130;28;20266;-76
2022/06/07 00:22:01;;;;;;;7.30;4.47;;;23.20;75.60;;;;;;5085744;28;20186;-76
2022/06/07 00:24:29;;;;;;;9.23;4.47;;;23.10;75.80;;;;;;5070990;28;20279;-76
2022/06/07 00:26:56;;;;;;;6.90;4.40;;;23.10;76.00;;;;;;5069978;28;20205;-76
2022/06/07 00:29:25;;;;;;;9.83;3.80;;;23.10;76.10;;;;;;5074781;28;20209;-76
2022/06/07 00:31:52;;;;;;;6.17;3.90;;;23.10;76.30;;;;;;5073894;28;20534;-76
2022/06/07 00:34:19;;;;;;;6.13;4.37;;;23.10;76.30;;;;;;5065015;28;20222;-76
2022/06/07 00:36:46;;;;;;;10.90;3.63;;;23.10;76.20;;;;;;5076700;28;20189;-76
2022/06/07 00:39:14;;;;;;;7.03;3.90;;;23.10;76.30;;;;;;5051750;28;20209;-76
2022/06/07 00:41:42;;;;;;;7.40;3.70;;;23.10;76.60;;;;;;5082051;28;20202;-76
2022/06/07 00:44:21;;;;;;;10.23;4.63;;;23.10;76.80;;;;;;5057305;28;20235;-76
2022/06/07 00:46:51;;;;;;;7.47;3.93;;;23.00;77.10;;;;;;5069798;28;20649;-76
2022/06/07 00:49:20;;;;;;;8.07;4.77;;;23.00;77.20;;;;;;5050671;28;20220;-76
2022/06/07 00:51:47;;;;;;;9.77;4.43;;;23.00;77.30;;;;;;5067300;28;20202;-76
2022/06/07 00:54:26;;;;;;;5.53;4.07;;;23.00;77.40;;;;;;5057962;28;20709;-76
2022/06/07 00:57:00;;;;;;;8.23;4.13;;;23.00;77.40;;;;;;5055345;28;20292;-76
2022/06/07 00:59:32;;;;;;;5.40;4.00;;;23.00;77.30;;;;;;5070980;28;20209;-76
2022/06/07 01:01:59;;;;;;;10.63;5.20;;;22.90;77.90;;;;;;5077648;28;20209;-76
2022/06/07 01:04:27;;;;;;;6.60;4.43;;;22.90;77.50;;;;;;5074042;28;20205;-76
2022/06/07 01:12:33;;;;;;;7.87;4.73;;;22.70;78.30;;;;;;5075800;28;20292;-76
2022/06/07 01:15:03;;;;;;;7.80;4.73;;;22.70;78.60;;;;;;5066099;28;20232;-76
2022/06/07 01:17:30;;;;;;;7.63;4.30;;;22.60;78.80;;;;;;5074270;28;20251;-76
2022/06/07 01:19:57;;;;;;;5.27;4.50;;;22.60;79.10;;;;;;5067682;28;20516;-76
2022/06/07 01:22:25;;;;;;;9.07;4.97;;;22.60;79.40;;;;;;5067619;28;20201;-76
2022/06/07 01:24:53;;;;;;;5.77;4.47;;;22.60;79.50;;;;;;5083324;28;20233;-76
2022/06/07 01:27:21;;;;;;;12.03;5.03;;;22.50;79.80;;;;;;5060887;28;20213;-76
2022/06/07 01:29:48;;;;;;;12.07;5.97;;;22.50;80.00;;;;;;5065170;28;20216;-76
2022/06/07 01:32:18;;;;;;;8.93;5.30;;;22.50;80.20;;;;;;5066127;28;20292;-76
2022/06/07 01:34:46;;;;;;;10.23;5.97;;;22.50;80.40;;;;;;5085898;28;20212;-76
2022/06/07 01:37:16;;;;;;;9.67;5.53;;;22.40;80.50;;;;;;5069239;28;20209;-76
2022/06/07 01:42:30;;;;;;;6.70;5.10;;;22.40;80.70;;;;;;5073436;28;20530;-76
2022/06/07 01:44:57;;;;;;;10.50;5.47;;;22.40;80.80;;;;;;5068371;28;20220;-76
2022/06/07 01:47:28;;;;;;;6.67;5.30;;;22.40;80.90;;;;;;5075080;28;20209;-76
2022/06/07 01:49:58;;;;;;;5.30;4.80;;;22.40;81.10;;;;;;5074048;28;20629;-76
2022/06/07 01:52:29;;;;;;;6.77;5.50;;;22.40;81.30;;;;;;5083999;28;20233;-76
2022/06/07 01:55:00;;;;;;;8.33;5.07;;;22.40;81.40;;;;;;5065916;28;20241;-77
2022/06/07 01:57:32;;;;;;;10.23;5.60;;;22.40;81.30;;;;;;5058189;28;20266;-76
2022/06/07 02:00:07;;;;;;;8.37;5.97;;;22.30;81.10;;;;;;5073785;28;20210;-76
2022/06/07 02:02:43;;;;;;;9.17;5.70;;;22.30;81.40;;;;;;5064492;28;20201;-76
2022/06/07 02:05:13;;;;;;;7.50;5.40;;;22.20;81.60;;;;;;5075052;28;20201;-76
2022/06/07 02:07:44;;;;;;;10.93;6.60;;;22.20;82.00;;;;;;5073128;28;20206;-76
2022/06/07 02:10:16;;;;;;;12.27;7.20;;;22.10;82.10;;;;;;5074557;28;20209;-76
2022/06/07 02:12:44;;;;;;;9.30;7.07;;;22.10;82.30;;;;;;5061448;28;20278;-76
2022/06/07 02:15:11;;;;;;;9.47;6.70;;;22.10;82.40;;;;;;5080287;28;20296;-76
2022/06/07 02:17:38;;;;;;;10.50;6.23;;;22.00;82.50;;;;;;5071902;28;20664;-76
2022/06/07 02:20:23;;;;;;;8.93;6.40;;;22.00;82.70;;;;;;5087450;28;20210;-76
2022/06/07 02:22:50;;;;;;;7.63;6.30;;;22.00;82.90;;;;;;5070352;28;20292;-76
2022/06/07 02:25:17;;;;;;;10.27;6.23;;;22.00;83.00;;;;;;5065475;28;20205;-76
2022/06/07 02:27:45;;;;;;;6.93;6.13;;;22.00;83.10;;;;;;5071412;28;20267;-76
2022/06/07 02:30:12;;;;;;;10.30;6.67;;;22.00;83.10;;;;;;5067886;28;20201;-76
2022/06/07 02:32:40;;;;;;;12.03;7.27;;;21.90;83.10;;;;;;5087313;28;20540;-75
2022/06/07 02:35:08;;;;;;;7.17;6.47;;;21.90;83.20;;;;;;5088395;28;20224;-76
2022/06/07 02:37:37;;;;;;;8.07;6.83;;;21.90;83.30;;;;;;5087983;28;20532;-76
2022/06/07 02:40:06;;;;;;;9.83;6.27;;;21.90;83.40;;;;;;5076244;28;20247;-76
2022/06/07 02:42:33;;;;;;;9.10;5.77;;;21.90;83.40;;;;;;5082959;28;20262;-76
2022/06/07 02:45:01;;;;;;;15.10;6.83;;;21.80;83.20;;;;;;5089168;28;20288;-76
2022/06/07 02:47:30;;;;;;;10.60;6.97;;;21.80;83.10;;;;;;5065421;28;20259;-76
2022/06/07 02:50:04;;;;;;;12.17;8.43;;;21.80;83.10;;;;;;5060479;28;20211;-76
2022/06/07 02:52:34;;;;;;;13.63;8.60;;;21.70;83.10;;;;;;5066623;28;20210;-76
2022/06/07 02:55:11;;;;;;;11.30;7.97;;;21.70;83.30;;;;;;5080838;28;20229;-76
2022/06/07 02:57:39;;;;;;;15.57;8.47;;;21.60;83.60;;;;;;5068821;28;20216;-76
2022/06/07 03:00:11;;;;;;;13.30;7.87;;;21.60;83.80;;;;;;5076780;28;20197;-76
2022/06/07 03:02:39;;;;;;;10.10;7.10;;;21.60;83.80;;;;;;5072515;28;20202;-76
2022/06/07 03:05:10;;;;;;;9.80;7.57;;;21.50;83.70;;;;;;5067746;28;20628;-76
2022/06/07 03:07:39;;;;;;;10.80;7.20;;;21.50;84.50;;;;;;5062408;28;20202;-76
2022/06/07 03:10:09;;;;;;;8.80;7.90;;;21.50;84.10;;;;;;5068878;28;20304;-76
2022/06/07 03:12:38;;;;;;;11.63;7.70;;;21.50;84.20;;;;;;5076924;28;20220;-75
2022/06/07 03:15:08;;;;;;;10.53;8.07;;;21.50;84.30;;;;;;5065327;28;20244;-76
2022/06/07 03:17:37;;;;;;;10.93;7.53;;;21.50;84.20;;;;;;5068753;28;20208;-77
2022/06/07 03:20:06;;;;;;;11.40;7.23;;;21.40;84.10;;;;;;5064019;28;20238;-76
2022/06/07 03:22:36;;;;;;;13.43;7.53;;;21.50;84.10;;;;;;5049767;28;20212;-76
2022/06/07 03:25:05;;;;;;;11.83;7.80;;;21.40;84.10;;;;;;5068685;28;20678;-76
2022/06/07 03:27:35;;;;;;;12.53;7.77;;;21.40;84.20;;;;;;5060882;28;20204;-76
2022/06/07 03:30:08;;;;;;;12.87;7.43;;;21.40;84.30;;;;;;5063982;28;20213;-76
2022/06/07 03:32:38;;;;;;;11.60;7.40;;;21.40;84.60;;;;;;5068770;28;20532;-75
2022/06/07 03:35:07;;;;;;;18.50;7.37;;;21.40;84.60;;;;;;5060363;28;20209;-76
2022/06/07 03:37:38;;;;;;;9.57;7.60;;;21.40;84.70;;;;;;5063223;28;20205;-75
2022/06/07 03:40:08;;;;;;;8.33;7.53;;;21.40;84.60;;;;;;5054465;28;20206;-76
2022/06/07 03:42:37;;;;;;;16.67;7.70;;;21.40;84.50;;;;;;5073049;28;20213;-76
2022/06/07 03:45:06;;;;;;;9.93;7.50;;;21.40;84.40;;;;;;5062769;28;20230;-76
2022/06/07 03:47:36;;;;;;;12.60;7.40;;;21.50;84.40;;;;;;5072797;28;20206;-75
2022/06/07 03:50:05;;;;;;;10.23;7.80;;;21.50;84.40;;;;;;5076193;28;20206;-76
2022/06/07 03:52:32;;;;;;;9.00;7.40;;;21.50;84.40;;;;;;5076020;28;20210;-76
2022/06/07 03:54:59;;;;;;;9.93;7.13;;;21.50;84.40;;;;;;5078569;28;20256;-75
2022/06/07 03:57:30;;;;;;;8.67;7.30;;;21.50;84.50;;;;;;5076082;28;20284;-75
2022/06/07 04:00:01;;;;;;;13.60;7.63;;;21.50;84.30;;;;;;5070175;28;20235;-75
2022/06/07 04:02:32;;;;;;;11.30;7.30;;;21.50;84.20;;;;;;5080633;28;20219;-76
2022/06/07 04:05:00;;;;;;;13.53;7.63;;;21.50;84.00;;;;;;5086383;28;20206;-76
2022/06/07 04:10:14;;;;;;;10.40;8.00;;;21.60;84.30;;;;;;5069526;28;20550;-75
2022/06/07 04:12:46;;;;;;;12.07;7.93;;;21.60;84.40;;;;;;5070378;28;20206;-75
2022/06/07 04:15:15;;;;;;;13.33;8.47;;;21.60;84.50;;;;;;5078539;28;20319;-75
2022/06/07 04:17:42;;;;;;;8.17;7.07;;;21.60;84.70;;;;;;5083787;28;20530;-75
2022/06/07 04:20:24;;;;;;;11.57;7.70;;;21.60;84.70;;;;;;5079024;28;20190;-75
2022/06/07 04:22:53;;;;;;;8.73;7.23;;;21.70;84.70;;;;;;5068434;28;20198;-75
2022/06/07 04:25:21;;;;;;;8.37;7.47;;;21.70;84.70;;;;;;5063579;28;20271;-75
2022/06/07 04:27:49;;;;;;;13.37;8.50;;;21.80;84.70;;;;;;5078147;28;20623;-75
2022/06/07 04:30:18;;;;;;;11.20;8.10;;;21.80;84.60;;;;;;5052763;28;20209;-75
2022/06/07 04:32:49;;;;;;;10.83;8.20;;;21.80;84.40;;;;;;5063800;28;20210;-76
2022/06/07 04:35:23;;;;;;;13.37;6.97;;;21.90;84.50;;;;;;5075952;28;20263;-76
2022/06/07 04:37:55;;;;;;;11.03;7.47;;;21.90;84.50;;;;;;5075695;28;20256;-75
2022/06/07 04:40:26;;;;;;;12.10;7.50;;;21.90;84.40;;;;;;5069285;28;20247;-76
2022/06/07 04:42:54;;;;;;;11.87;7.83;;;22.00;84.30;;;;;;5069806;28;20210;-76
2022/06/07 04:45:26;;;;;;;9.97;7.87;;;22.00;84.20;;;;;;5076674;28;20200;-76
2022/06/07 04:48:09;;;;;;;10.97;8.50;;;22.00;84.00;;;;;;5073419;28;20212;-76
2022/06/07 04:51:07;;;;;;;12.47;8.47;;;22.00;83.90;;;;;;5075571;28;20275;-76
2022/06/07 04:53:41;;;;;;;12.67;8.40;;;22.00;84.20;;;;;;5067033;28;20226;-76
2022/06/07 04:56:21;;;;;;;14.47;8.10;;;21.90;84.40;;;;;;5066785;28;20261;-76
2022/06/07 04:58:49;;;;;;;11.33;8.33;;;22.00;84.70;;;;;;5081879;28;20551;-76
2022/06/07 05:01:25;;;;;;;10.13;8.27;;;22.10;84.70;;;;;;5067101;28;20227;-76
2022/06/07 05:03:54;;;;;;;13.63;8.30;;;22.30;84.40;;;;;;5067242;28;20205;-76
2022/06/07 05:06:29;;;;;;;12.53;8.20;;;22.50;83.70;;;;;;5064382;28;20263;-75
2022/06/07 05:09:12;;;;;;;13.67;8.30;;;22.60;83.10;;;;;;5072223;28;20802;-76
2022/06/07 05:11:39;;;;;;;10.90;8.20;;;22.70;82.30;;;;;;5079152;28;20220;-76
2022/06/07 05:14:07;;;;;;;14.03;7.27;;;22.90;82.00;;;;;;5074807;28;20292;-76
2022/06/07 05:16:41;;;;;;;12.30;8.33;;;23.00;81.40;;;;;;5065585;28;20573;-76
2022/06/07 05:19:14;;;;;;;12.33;8.43;;;23.20;80.70;;;;;;5065486;28;20205;-76
2022/06/07 05:21:44;;;;;;;12.67;8.23;;;23.30;80.10;;;;;;5068410;28;20189;-76
2022/06/07 05:24:12;;;;;;;12.10;7.90;;;23.30;79.70;;;;;;5082707;28;20212;-76
2022/06/07 05:26:54;;;;;;;12.90;8.27;;;23.40;79.70;;;;;;5066214;28;20209;-76
2022/06/07 05:29:46;;;;;;;11.20;7.53;;;23.30;79.80;;;;;;5060059;28;20213;-76
2022/06/07 05:32:23;;;;;;;15.13;8.17;;;23.40;79.90;;;;;;5063312;28;20255;-76
2022/06/07 05:34:53;;;;;;;10.57;8.23;;;23.40;79.50;;;;;;5053004;28;20715;-76
2022/06/07 05:37:22;;;;;;;10.23;8.93;;;23.50;79.10;;;;;;5075297;28;20202;-76
2022/06/07 05:40:04;;;;;;;9.93;8.17;;;23.60;78.90;;;;;;5070338;28;20224;-76
2022/06/07 05:42:32;;;;;;;12.20;7.70;;;23.60;78.10;;;;;;5086243;28;20281;-76
2022/06/07 05:45:07;;;;;;;9.67;7.63;;;23.60;77.10;;;;;;5068666;28;20638;-76
2022/06/07 05:47:35;;;;;;;8.00;7.13;;;23.70;76.50;;;;;;5059991;28;20201;-76
2022/06/07 05:50:04;;;;;;;10.67;8.17;;;23.60;76.00;;;;;;5058333;28;20591;-76
2022/06/07 05:52:31;;;;;;;10.20;7.50;;;23.60;76.00;;;;;;5076366;28;20233;-76
2022/06/07 05:54:59;;;;;;;11.70;8.10;;;23.60;75.70;;;;;;5052188;28;20585;-76
2022/06/07 05:57:28;;;;;;;13.07;7.87;;;23.60;75.30;;;;;;5059678;28;20262;-76
2022/06/07 05:59:56;;;;;;;14.20;8.80;;;23.60;75.00;;;;;;5055155;28;20202;-76
2022/06/07 06:02:23;;;;;;;17.70;9.20;;;23.50;74.70;;;;;;5079705;28;20198;-76
2022/06/07 06:04:51;;;;;;;15.73;9.17;;;23.50;74.90;;;;;;5066989;28;20212;-76
2022/06/07 06:07:18;;;;;;;11.50;8.70;;;23.60;75.30;;;;;;5063173;28;20201;-76
2022/06/07 06:12:44;;;;;;;8.97;7.97;;;23.70;74.40;;;;;;5072859;28;20202;-76
2022/06/07 06:15:17;;;;;;;11.63;9.27;;;23.90;74.60;;;;;;5069572;28;20225;-75
2022/06/07 06:17:46;;;;;;;10.27;7.57;;;24.10;74.30;;;;;;5067560;28;20648;-75
2022/06/07 06:20:23;;;;;;;10.20;7.50;;;24.30;74.20;;;;;;5081950;28;20237;-75
2022/06/07 06:22:53;;;;;;;12.60;9.13;;;24.60;73.60;;;;;;5055423;28;20230;-75
2022/06/07 06:25:20;;;;;;;14.67;8.67;;;24.80;72.90;;;;;;5067113;28;20241;-76
2022/06/07 06:27:48;;;;;;;13.23;8.07;;;24.90;72.40;;;;;;5074116;28;20303;-76
2022/06/07 06:30:16;;;;;;;13.43;9.07;;;25.00;72.20;;;;;;5073073;28;20209;-76
2022/06/07 06:32:54;;;;;;;13.47;8.80;;;25.10;72.30;;;;;;5086385;28;20208;-76
2022/06/07 06:35:24;;;;;;;12.93;9.40;;;25.20;71.90;;;;;;5062231;28;20239;-76
2022/06/07 06:37:53;;;;;;;13.03;7.93;;;25.20;71.60;;;;;;5055572;28;20209;-75
2022/06/07 06:40:22;;;;;;;11.07;8.70;;;25.20;71.20;;;;;;5064238;28;20201;-76
2022/06/07 06:42:55;;;;;;;11.83;8.73;;;25.20;71.70;;;;;;5089686;28;20258;-76
2022/06/07 06:45:44;;;;;;;12.80;9.50;;;25.20;71.80;;;;;;5072494;28;20289;-76
2022/06/07 06:48:16;;;;;;;16.77;9.67;;;25.30;72.30;;;;;;5072328;28;20207;-75
2022/06/07 06:50:46;;;;;;;14.13;9.20;;;25.50;72.20;;;;;;5069911;28;20819;-76
2022/06/07 06:53:14;;;;;;;13.43;8.93;;;25.70;70.30;;;;;;5066056;28;20202;-76
2022/06/07 06:55:46;;;;;;;13.27;9.60;;;25.80;69.30;;;;;;5035578;28;20258;-76
2022/06/07 06:58:14;;;;;;;13.20;8.47;;;25.90;68.80;;;;;;5053978;28;20211;-76
2022/06/07 07:00:41;;;;;;;12.83;8.20;;;25.90;68.90;;;;;;5055977;28;20198;-76
2022/06/07 07:03:09;;;;;;;21.47;8.63;;;26.00;68.80;;;;;;5048476;28;20484;-76
2022/06/07 07:05:51;;;;;;;12.40;7.90;;;26.10;69.30;;;;;;5064115;28;20201;-76
2022/06/07 07:08:20;;;;;;;14.13;7.03;;;26.40;69.60;;;;;;5065669;28;20221;-76
2022/06/07 07:10:47;;;;;;;14.90;7.13;;;26.70;69.10;;;;;;5060635;28;20220;-76
2022/06/07 07:13:14;;;;;;;11.47;7.43;;;26.90;68.90;;;;;;5050833;28;20265;-76
2022/06/07 07:15:47;;;;;;;9.63;6.40;;;27.00;69.10;;;;;;5063672;28;20275;-76
2022/06/07 07:18:14;;;;;;;8.33;6.07;;;27.20;70.00;;;;;;5047639;28;20203;-76
2022/06/07 07:20:48;;;;;;;8.47;6.27;;;27.30;69.30;;;;;;5045103;28;20223;-75
2022/06/07 07:23:17;;;;;;;11.00;6.30;;;27.40;68.90;;;;;;5055664;28;20217;-76
2022/06/07 07:25:44;;;;;;;11.30;6.33;;;27.40;68.00;;;;;;5045138;28;20216;-76
2022/06/07 07:28:18;;;;;;;7.87;4.90;;;27.50;68.40;;;;;;5069054;28;20208;-76
2022/06/07 07:30:47;;;;;;;10.07;6.07;;;27.70;68.20;;;;;;5048502;28;20206;-76
2022/06/07 07:33:15;;;;;;;10.80;6.40;;;27.90;68.30;;;;;;5057699;28;20214;-76
2022/06/07 07:35:44;;;;;;;11.63;6.03;;;28.20;67.60;;;;;;5068147;28;20240;-76
2022/06/07 07:38:12;;;;;;;11.43;8.33;;;28.30;67.40;;;;;;5030208;28;20268;-76
2022/06/07 07:40:41;;;;;;;12.80;8.03;;;28.20;65.20;;;;;;5053079;28;20217;-75
2022/06/07 07:43:12;;;;;;;14.90;7.20;;;28.10;65.30;;;;;;5060551;28;20205;-76
2022/06/07 07:45:40;;;;;;;14.50;8.40;;;27.90;66.80;;;;;;5050787;28;20221;-76
2022/06/07 07:48:12;;;;;;;11.67;7.63;;;27.80;65.90;;;;;;5047706;28;20217;-76
2022/06/07 07:50:43;;;;;;;10.97;7.80;;;27.70;65.70;;;;;;5065856;28;20206;-76
2022/06/07 07:53:17;;;;;;;15.13;7.97;;;27.50;66.20;;;;;;5039952;28;20213;-76
2022/06/07 07:55:48;;;;;;;14.00;7.13;;;27.50;67.40;;;;;;5040088;28;20298;-76
2022/06/07 07:58:18;;;;;;;10.47;7.50;;;27.40;67.40;;;;;;5045966;28;20198;-76
2022/06/07 08:00:47;;;;;;;10.63;7.00;;;27.50;68.10;;;;;;5035413;28;20215;-76
2022/06/07 08:03:15;;;;;;;12.20;7.70;;;27.50;67.50;;;;;;5050549;28;20197;-75
2022/06/07 08:05:47;;;;;;;17.03;6.93;;;27.50;68.30;;;;;;5055138;28;20208;-76
2022/06/07 08:08:15;;;;;;;11.97;7.57;;;27.40;67.20;;;;;;5067962;28;20194;-76
2022/06/07 08:10:42;;;;;;;13.40;6.70;;;27.30;67.50;;;;;;5050507;28;20221;-76
2022/06/07 08:13:09;;;;;;;12.30;7.33;;;27.10;68.20;;;;;;5053400;28;20201;-75
2022/06/07 08:15:36;;;;;;;10.17;7.60;;;27.10;68.80;;;;;;5067002;28;20228;-75
2022/06/07 08:18:04;;;;;;;11.73;7.07;;;27.20;69.00;;;;;;5065137;28;20210;-76
2022/06/07 08:20:37;;;;;;;11.10;6.77;;;27.40;69.00;;;;;;5049896;28;20305;-75
2022/06/07 08:23:07;;;;;;;12.13;7.97;;;27.50;68.70;;;;;;5051017;28;20216;-75
2022/06/07 08:25:34;;;;;;;9.70;7.03;;;27.70;68.00;;;;;;5054106;28;20206;-76
2022/06/07 08:28:02;;;;;;;8.63;7.60;;;27.80;67.30;;;;;;5064425;28;20209;-76
2022/06/07 08:30:32;;;;;;;9.50;7.70;;;27.80;66.70;;;;;;5056349;28;20205;-75
2022/06/07 08:37:32;;;;;;;10.13;7.80;;;27.90;66.70;;;;;;5039462;28;20819;-75
2022/06/07 08:38:33;;;;;;;10.10;8.00;;;28.10;66.70;;;;;;5045945;28;20229;-76
2022/06/07 08:41:00;;;;;;;15.73;9.03;;;28.10;65.00;;;;;;5050223;28;20284;-75
2022/06/07 08:43:27;;;;;;;10.40;8.50;;;28.00;64.60;;;;;;5052980;28;20632;-76
2022/06/07 08:45:55;;;;;;;11.33;7.90;;;27.90;65.30;;;;;;5046828;28;20202;-76
2022/06/07 08:48:26;;;;;;;11.77;7.10;;;27.70;65.70;;;;;;5065204;28;20611;-76
2022/06/07 08:51:06;;;;;;;9.50;7.20;;;27.60;66.00;;;;;;5067896;28;20337;-76
2022/06/07 08:53:40;;;;;;;12.10;7.47;;;27.50;67.20;;;;;;5064667;28;20260;-75
2022/06/07 08:56:14;;;;;;;8.27;7.47;;;27.40;67.20;;;;;;5076904;28;20236;-76
2022/06/07 08:58:47;;;;;;;8.47;6.07;;;27.40;67.30;;;;;;5068601;28;20510;-76
2022/06/07 09:01:33;;;;;;;11.67;6.53;;;27.30;67.70;;;;;;5091842;28;20614;-76
2022/06/07 09:04:15;;;;;;;7.60;6.03;;;27.40;68.10;;;;;;5059643;28;20213;-76
2022/06/07 09:06:46;;;;;;;6.93;6.30;;;27.40;67.40;;;;;;5081698;28;20205;-76
2022/06/07 09:09:15;;;;;;;6.53;5.83;;;27.40;67.90;;;;;;5082986;28;20216;-76
2022/06/07 09:12:10;;;;;;;8.63;5.60;;;27.40;67.80;;;;;;5062901;28;20229;-76
2022/06/07 09:14:47;;;;;;;8.07;5.20;;;27.40;66.90;;;;;;5075883;28;20601;-76
2022/06/07 09:17:19;;;;;;;11.87;8.70;;;27.30;67.00;;;;;;5084067;28;20225;-76
2022/06/07 09:19:48;;;;;;;10.93;8.77;;;27.40;68.20;;;;;;5075745;28;20189;-76
2022/06/07 09:22:23;;;;;;;11.40;7.67;;;27.40;68.80;;;;;;5086408;28;20300;-76
2022/06/07 09:25:01;;;;;;;12.60;8.10;;;27.50;69.30;;;;;;5084081;28;20205;-76
2022/06/07 09:27:33;;;;;;;9.53;8.20;;;27.60;69.30;;;;;;5064831;28;20244;-76
2022/06/07 09:30:26;;;;;;;10.87;8.07;;;27.80;69.00;;;;;;5072112;28;20245;-76
2022/06/07 09:32:53;;;;;;;14.33;9.07;;;27.90;68.60;;;;;;5083666;28;20216;-76
2022/06/07 09:35:37;;;;;;;13.73;7.73;;;28.00;68.30;;;;;;5072198;28;20214;-76
2022/06/07 09:38:11;;;;;;;14.63;9.50;;;28.00;68.50;;;;;;5072688;28;20206;-76
2022/06/07 09:40:54;;;;;;;11.27;9.33;;;28.10;68.20;;;;;;5084735;28;20212;-75
2022/06/07 09:43:40;;;;;;;11.57;8.73;;;28.20;68.20;;;;;;5057033;28;20209;-75
2022/06/07 09:46:11;;;;;;;12.43;8.20;;;28.60;67.60;;;;;;5086576;28;20256;-76
2022/06/07 09:48:42;;;;;;;14.40;9.57;;;29.10;67.10;;;;;;5076011;28;20219;-76
2022/06/07 09:51:19;;;;;;;15.27;8.90;;;29.40;65.40;;;;;;5069530;28;20760;-76
2022/06/07 09:53:53;;;;;;;11.77;8.63;;;29.60;64.70;;;;;;5077852;28;20200;-75
2022/06/07 09:56:25;;;;;;;12.27;7.93;;;29.80;63.90;;;;;;5085984;28;20225;-76
2022/06/07 09:58:59;;;;;;;15.73;9.10;;;29.90;63.70;;;;;;5068173;28;20525;-76
2022/06/07 10:01:30;;;;;;;9.33;8.17;;;30.20;63.90;;;;;;5074694;28;20208;-76
2022/06/07 10:04:35;;;;;;;12.13;9.63;;;30.50;63.00;;;;;;5071840;28;20567;-76
2022/06/07 10:07:34;;;;;;;12.40;9.60;;;30.80;61.80;;;;;;5035562;28;20209;-76
2022/06/07 10:10:23;;;;;;;15.80;9.70;;;31.00;59.70;;;;;;5088847;28;20193;-76
2022/06/07 10:12:53;;;;;;;11.10;8.67;;;31.10;59.40;;;;;;5074512;28;20198;-76
2022/06/07 10:15:35;;;;;;;10.47;9.27;;;31.00;59.80;;;;;;5069867;28;20209;-76
2022/06/07 10:18:30;;;;;;;14.20;8.53;;;31.00;59.10;;;;;;5071473;28;20553;-76
2022/06/07 10:21:42;;;;;;;12.43;8.23;;;30.90;59.40;;;;;;5064827;28;20210;-75
2022/06/07 10:24:34;;;;;;;34.20;9.40;;;31.10;60.80;;;;;;5084044;28;20286;-76
2022/06/07 10:27:00;;;;;;;14.43;8.57;;;31.40;60.30;;;;;;5086767;28;20213;-76
2022/06/07 10:30:19;;;;;;;10.17;7.70;;;31.70;58.50;;;;;;5073288;28;20289;-76
2022/06/07 10:33:06;;;;;;;12.47;9.10;;;31.80;56.80;;;;;;5030710;28;20625;-76
2022/06/07 10:35:44;;;;;;;9.63;8.63;;;31.80;56.80;;;;;;5065029;28;20197;-76
2022/06/07 10:38:17;;;;;;;14.80;9.50;;;31.80;57.90;;;;;;5063478;28;20202;-76
2022/06/07 10:41:03;;;;;;;14.87;10.83;;;32.00;57.50;;;;;;5066580;28;20240;-75
2022/06/07 10:44:11;;;;;;;10.80;8.07;;;32.20;56.20;;;;;;5083875;28;20215;-76
2022/06/07 10:46:42;;;;;;;17.07;10.60;;;32.50;56.60;;;;;;5071129;28;20627;-76
2022/06/07 10:49:18;;;;;;;11.70;7.40;;;32.80;55.20;;;;;;5083052;28;20212;-76
2022/06/07 10:54:54;;;;;;;12.70;8.40;;;33.10;54.70;;;;;;5082623;28;20209;-76
2022/06/07 10:57:33;;;;;;;11.27;8.23;;;33.40;54.00;;;;;;5062343;28;20271;-76
2022/06/07 11:00:14;;;;;;;14.37;7.63;;;33.50;52.90;;;;;;5084543;28;20554;-76
2022/06/07 11:02:45;;;;;;;11.00;7.30;;;33.60;53.50;;;;;;5081630;28;20613;-76
2022/06/07 11:11:11;;;;;;;8.20;6.60;;;34.10;51.70;;;;;;5065794;28;20212;-76
2022/06/07 11:14:04;;;;;;;10.00;7.30;;;34.10;51.70;;;;;;5078954;28;20208;-76
2022/06/07 11:17:15;;;;;;;10.40;7.50;;;34.20;51.70;;;;;;5067247;28;20221;-76
2022/06/07 11:19:42;;;;;;;8.33;6.50;;;34.40;50.90;;;;;;5048603;28;20200;-76
2022/06/07 11:22:22;;;;;;;9.97;8.77;;;34.50;51.00;;;;;;5065915;28;20641;-76
2022/06/07 11:25:00;;;;;;;10.70;9.00;;;34.50;49.40;;;;;;5070348;28;20220;-76
2022/06/07 11:27:30;;;;;;;11.80;8.17;;;34.20;48.60;;;;;;5063697;28;20200;-76
2022/06/07 11:30:37;;;;;;;10.47;6.67;;;33.70;49.70;;;;;;5062295;28;20297;-76
2022/06/07 11:33:30;;;;;;;12.27;7.57;;;33.30;51.70;;;;;;5058843;28;20205;-76
2022/06/07 11:36:22;;;;;;;7.70;6.50;;;33.40;52.50;;;;;;5046061;28;20537;-76
2022/06/07 11:38:56;;;;;;;10.20;6.77;;;33.60;52.30;;;;;;5083601;28;20612;-76
2022/06/07 11:41:37;;;;;;;12.23;8.00;;;33.90;51.80;;;;;;5088963;28;20200;-76
2022/06/07 11:44:08;;;;;;;11.87;7.13;;;34.10;50.60;;;;;;5071099;28;20201;-76
2022/06/07 11:46:35;;;;;;;9.73;6.50;;;34.20;50.30;;;;;;5069327;28;20262;-76
2022/06/07 11:49:29;;;;;;;7.60;6.13;;;34.10;50.00;;;;;;5079951;28;20209;-76
2022/06/07 11:52:24;;;;;;;9.13;6.97;;;33.90;50.80;;;;;;5080963;28;20241;-76
2022/06/07 11:55:04;;;;;;;8.20;7.40;;;33.60;50.80;;;;;;5055425;28;20283;-76
2022/06/07 11:57:54;;;;;;;10.10;6.73;;;33.30;51.30;;;;;;5085695;28;20286;-75
2022/06/07 12:00:24;;;;;;;8.90;6.20;;;33.00;52.10;;;;;;5061069;28;20214;-76
2022/06/07 12:02:54;;;;;;;12.30;7.40;;;32.90;51.00;;;;;;5071554;28;20205;-76
2022/06/07 12:05:46;;;;;;;12.13;7.20;;;32.60;52.00;;;;;;5066922;28;20236;-76
2022/06/07 12:08:25;;;;;;;15.13;9.27;;;32.30;52.80;;;;;;5072799;28;20262;-76
2022/06/07 12:11:20;;;;;;;11.27;7.27;;;31.80;52.90;;;;;;5082078;28;20212;-76
2022/06/07 12:13:56;;;;;;;17.00;8.87;;;31.40;54.60;;;;;;5073653;28;20193;-76
2022/06/07 12:16:27;;;;;;;11.07;7.80;;;31.00;54.90;;;;;;5090032;28;20211;-76
2022/06/07 12:18:56;;;;;;;10.43;6.97;;;30.70;55.80;;;;;;5069223;28;20216;-76
2022/06/07 12:21:25;;;;;;;12.57;7.20;;;30.40;56.40;;;;;;5084635;28;20504;-75
2022/06/07 12:24:16;;;;;;;7.53;6.53;;;30.20;56.80;;;;;;5064695;28;20534;-74
2022/06/07 12:26:46;;;;;;;11.03;6.13;;;30.00;57.20;;;;;;5060262;28;20212;-75
2022/06/07 12:29:19;;;;;;;5.07;3.10;;;29.70;57.70;;;;;;5083667;28;20193;-75
2022/06/07 12:31:57;;;;;;;6.10;3.13;;;29.50;57.30;;;;;;5083814;28;20696;-75
2022/06/07 12:34:30;;;;;;;4.37;3.30;;;29.40;57.00;;;;;;5082210;28;20225;-75
2022/06/07 12:37:25;;;;;;;3.60;2.20;;;29.20;57.70;;;;;;5085501;28;20209;-75
2022/06/07 12:39:57;;;;;;;6.50;2.47;;;29.00;57.50;;;;;;5083166;28;20298;-75
2022/06/07 12:42:33;;;;;;;7.37;2.80;;;28.80;58.10;;;;;;5073123;28;20212;-75
2022/06/07 12:45:17;;;;;;;3.23;2.20;;;28.70;58.70;;;;;;5086771;28;20197;-74
2022/06/07 12:47:46;;;;;;;7.03;2.37;;;28.60;59.20;;;;;;5080272;28;20215;-75
2022/06/07 12:50:20;;;;;;;2.43;2.20;;;28.60;58.90;;;;;;5067629;28;20204;-75
2022/06/07 12:52:53;;;;;;;5.17;2.10;;;28.60;59.10;;;;;;5074667;28;20200;-74
2022/06/07 12:55:27;;;;;;;5.70;2.07;;;28.50;58.80;;;;;;5069791;28;20332;-74
2022/06/07 12:58:05;;;;;;;3.47;2.30;;;28.50;59.00;;;;;;5063863;28;20280;-73
2022/06/07 13:00:44;;;;;;;3.77;2.37;;;28.50;57.90;;;;;;5088749;28;20762;-75
2022/06/07 13:03:26;;;;;;;3.47;2.23;;;28.50;57.50;;;;;;5088111;28;20292;-75
2022/06/07 13:05:59;;;;;;;7.80;2.30;;;28.50;57.50;;;;;;5083079;28;20258;-75
2022/06/07 13:08:37;;;;;;;3.00;1.90;;;28.60;58.70;;;;;;5080040;28;20237;-74
2022/06/07 13:11:15;;;;;;;9.50;2.10;;;28.60;58.40;;;;;;5085184;28;20228;-74
2022/06/07 13:13:47;;;;;;;4.70;2.00;;;28.70;57.60;;;;;;5084741;28;20197;-75
2022/06/07 13:16:29;;;;;;;5.10;2.30;;;28.80;57.70;;;;;;5076169;28;20305;-75
2022/06/07 13:19:00;;;;;;;9.00;2.93;;;28.80;57.40;;;;;;5086624;28;20643;-75
2022/06/07 13:21:39;;;;;;;8.13;3.20;;;28.90;58.60;;;;;;5086698;28;20205;-74
2022/06/07 13:24:22;;;;;;;6.23;4.03;;;29.00;60.30;;;;;;5052435;28;20206;-74
2022/06/07 13:26:59;;;;;;;8.67;4.10;;;29.00;60.20;;;;;;5090375;28;20216;-75
2022/06/07 13:29:34;;;;;;;8.07;3.87;;;28.80;59.90;;;;;;5070237;28;20689;-75
2022/06/07 13:32:05;;;;;;;3.47;3.17;;;28.50;58.30;;;;;;5072291;28;20298;-75
2022/06/07 13:34:55;;;;;;;5.57;3.67;;;28.30;58.70;;;;;;5076165;28;20217;-75
2022/06/07 13:37:28;;;;;;;6.23;3.20;;;28.10;58.70;;;;;;5063478;28;20217;-74
2022/06/07 13:40:15;;;;;;;4.43;2.43;;;27.90;58.70;;;;;;5059704;28;20203;-74